createdAt,value
2018-07-04T08:28:53.598Z,7.40
2018-07-04T08:31:33.529Z,8.40
2018-07-04T08:34:13.519Z,7.53
2018-07-04T08:36:53.346Z,7.27
2018-07-04T08:39:33.223Z,8.27
2018-07-04T08:42:13.063Z,10.27
2018-07-04T08:44:53.024Z,11.03
2018-07-04T08:47:33.078Z,11.00
2018-07-04T08:50:13.212Z,13.87
2018-07-04T08:52:53.264Z,9.00
2018-07-04T08:55:33.451Z,11.33
2018-07-04T08:58:13.469Z,12.67
2018-07-04T09:00:53.211Z,10.60
2018-07-04T09:03:33.065Z,10.10
2018-07-04T09:06:13.131Z,8.93
2018-07-04T09:08:53.156Z,11.10
2018-07-04T09:11:33.338Z,10.50
2018-07-04T09:14:13.355Z,11.37
2018-07-04T09:16:53.348Z,11.03
2018-07-04T09:19:33.467Z,13.97
2018-07-04T09:22:15.192Z,6.30
2018-07-04T09:25:03.418Z,7.43
2018-07-04T09:31:19.355Z,9.23
2018-07-04T09:34:03.347Z,11.23
2018-07-04T09:40:01.156Z,8.67
2018-07-04T09:45:36.859Z,13.87
2018-07-04T09:48:20.889Z,8.77
2018-07-04T09:51:01.780Z,9.37
2018-07-04T09:53:48.335Z,10.10
2018-07-04T09:56:33.014Z,10.27
2018-07-04T09:59:15.419Z,12.17
2018-07-04T10:10:44.910Z,7.93
2018-07-04T10:13:25.343Z,11.07
2018-07-04T10:16:05.692Z,7.33
2018-07-04T10:18:47.005Z,9.50
2018-07-04T10:21:27.159Z,8.00
2018-07-04T10:27:31.022Z,8.37
2018-07-04T10:32:59.242Z,13.23
2018-07-04T10:35:39.084Z,9.47
2018-07-04T10:38:20.270Z,5.83
2018-07-04T10:41:00.240Z,11.53
2018-07-04T10:43:40.335Z,9.63
2018-07-04T10:46:20.796Z,8.67
2018-07-04T10:49:01.204Z,7.40
2018-07-04T10:51:41.124Z,9.80
2018-07-04T10:54:21.151Z,10.63
2018-07-04T10:57:01.216Z,11.73
2018-07-04T10:59:41.490Z,13.73
2018-07-04T11:02:21.371Z,11.83
2018-07-04T11:05:01.316Z,10.03
2018-07-04T11:07:42.669Z,9.20
2018-07-04T11:10:23.087Z,11.73
2018-07-04T11:13:04.415Z,10.90
2018-07-04T11:15:44.743Z,12.53
2018-07-04T11:18:25.265Z,9.93
2018-07-04T11:21:05.638Z,10.37
2018-07-04T11:23:45.752Z,9.80
2018-07-04T11:26:27.504Z,8.20
2018-07-04T11:29:07.585Z,10.60
2018-07-04T11:31:47.624Z,12.07
2018-07-04T11:34:27.675Z,12.60
2018-07-04T11:37:08.025Z,9.17
2018-07-04T11:39:48.224Z,9.47
2018-07-04T11:42:28.551Z,8.83
2018-07-04T11:45:08.738Z,11.83
2018-07-04T11:47:37.571Z,11.27
2018-07-04T11:50:05.433Z,10.63
2018-07-04T11:52:33.126Z,12.63
2018-07-04T11:55:00.933Z,8.50
2018-07-04T11:57:28.587Z,9.77
2018-07-04T11:59:57.849Z,8.37
2018-07-04T12:02:25.482Z,7.70
2018-07-04T12:05:05.477Z,10.97
2018-07-04T12:07:33.487Z,7.73
2018-07-04T12:10:01.144Z,7.53
2018-07-04T12:12:28.820Z,9.53
2018-07-04T12:14:56.458Z,7.47
2018-07-04T12:17:24.119Z,9.77
2018-07-04T12:19:51.779Z,12.60
2018-07-04T12:22:19.405Z,7.73
2018-07-04T12:24:47.170Z,7.87
2018-07-04T12:27:14.864Z,10.43
2018-07-04T12:29:42.500Z,8.40
2018-07-04T12:32:10.319Z,11.07
2018-07-04T12:34:38.039Z,9.13
2018-07-04T12:37:05.723Z,9.77
2018-07-04T12:39:33.471Z,9.90
2018-07-04T12:42:01.184Z,5.40
2018-07-04T12:44:28.876Z,6.87
2018-07-04T12:46:56.604Z,5.93
2018-07-04T12:49:25.400Z,11.73
2018-07-04T12:51:53.283Z,9.73
2018-07-04T12:54:26.281Z,7.00
2018-07-04T12:57:06.620Z,7.60
2018-07-04T12:59:46.730Z,10.30
2018-07-04T13:02:27.666Z,7.60
2018-07-04T13:05:08.756Z,8.10
2018-07-04T13:07:48.867Z,8.83
2018-07-04T13:10:29.188Z,10.37
2018-07-04T13:13:03.539Z,8.23
2018-07-04T13:15:43.755Z,9.00
2018-07-04T13:18:23.972Z,7.80
2018-07-04T13:21:03.993Z,7.87
2018-07-04T13:23:44.364Z,10.20
2018-07-04T13:26:24.845Z,9.27
2018-07-04T13:29:04.888Z,6.80
2018-07-04T13:31:46.433Z,8.00
2018-07-04T13:34:27.455Z,9.20
2018-07-04T13:37:08.349Z,5.00
2018-07-04T13:39:48.447Z,6.43
2018-07-04T13:42:28.640Z,4.80
2018-07-04T13:45:10.478Z,4.10
2018-07-04T13:47:55.944Z,7.67
2018-07-04T13:50:36.049Z,5.73
2018-07-04T13:53:16.166Z,7.87
2018-07-04T13:58:40.999Z,5.10
2018-07-04T14:01:21.051Z,5.63
2018-07-04T14:04:02.339Z,6.10
2018-07-04T14:06:46.976Z,4.33
2018-07-04T14:09:26.879Z,5.97
2018-07-04T14:12:06.891Z,6.03
2018-07-04T14:14:46.959Z,3.13
2018-07-04T14:17:26.932Z,6.10
2018-07-04T14:20:06.868Z,4.07
2018-07-04T14:22:46.770Z,4.70
2018-07-04T14:25:26.947Z,5.33
2018-07-04T14:28:07.196Z,7.03
2018-07-04T14:30:47.217Z,5.93
2018-07-04T14:33:27.437Z,5.20
2018-07-04T14:36:01.470Z,3.80
2018-07-04T14:38:41.499Z,8.20
2018-07-04T14:41:21.656Z,4.13
2018-07-04T14:44:01.657Z,5.10
2018-07-04T14:46:41.546Z,4.93
2018-07-04T14:49:21.812Z,6.50
2018-07-04T14:52:01.793Z,5.73
2018-07-04T14:54:42.067Z,3.10
2018-07-04T14:57:22.132Z,6.27
2018-07-04T15:00:02.302Z,3.47
2018-07-04T15:02:42.389Z,4.60
2018-07-04T15:05:22.439Z,4.90
2018-07-04T15:08:02.865Z,4.80
2018-07-04T15:10:42.892Z,3.47
2018-07-04T15:13:22.844Z,4.87
2018-07-04T15:16:03.493Z,6.40
2018-07-04T15:18:43.601Z,3.07
2018-07-04T15:21:23.710Z,4.07
2018-07-04T15:24:03.876Z,2.63
2018-07-04T15:26:44.229Z,5.53
2018-07-04T15:29:24.244Z,3.30
2018-07-04T15:32:04.367Z,3.97
2018-07-04T15:34:44.623Z,3.87
2018-07-04T15:37:24.628Z,5.43
2018-07-04T15:40:04.688Z,5.03
2018-07-04T15:42:44.763Z,4.43
2018-07-04T15:45:24.736Z,2.10
2018-07-04T15:48:04.770Z,2.90
2018-07-04T15:50:38.670Z,3.33
2018-07-04T15:53:18.673Z,2.03
2018-07-04T15:55:58.826Z,2.50
2018-07-04T15:58:38.941Z,3.77
2018-07-04T16:01:18.955Z,3.43
2018-07-04T16:03:59.011Z,4.50
2018-07-04T16:06:39.134Z,3.00
2018-07-04T16:09:19.211Z,4.93
2018-07-04T16:12:06.010Z,3.20
2018-07-04T16:14:48.766Z,3.70
2018-07-04T16:17:36.730Z,4.07
2018-07-04T16:20:19.620Z,4.70
2018-07-04T16:22:59.525Z,4.23
2018-07-04T16:25:39.448Z,3.60
2018-07-04T16:28:19.562Z,3.97
2018-07-04T16:30:59.690Z,8.67
2018-07-04T16:33:39.930Z,5.30
2018-07-04T16:36:19.989Z,3.80
2018-07-04T16:39:00.036Z,5.03
2018-07-04T16:41:40.293Z,7.90
2018-07-04T16:44:21.065Z,7.20
2018-07-04T16:47:01.116Z,4.70
2018-07-04T16:49:41.567Z,3.87
2018-07-04T16:52:22.548Z,4.20
2018-07-04T16:55:02.561Z,4.00
2018-07-04T16:57:42.767Z,5.37
2018-07-04T17:00:22.820Z,5.43
2018-07-04T17:03:03.021Z,7.07
2018-07-04T17:05:43.284Z,4.53
2018-07-04T17:08:23.391Z,4.90
2018-07-04T17:11:03.793Z,7.43
2018-07-04T17:13:43.791Z,5.53
2018-07-04T17:16:23.871Z,8.17
2018-07-04T17:19:04.031Z,9.33
2018-07-04T17:21:44.013Z,4.87
2018-07-04T17:24:25.272Z,9.63
2018-07-04T17:27:05.365Z,8.20
2018-07-04T17:29:45.466Z,4.67
2018-07-04T17:32:29.332Z,9.63
2018-07-04T17:35:09.656Z,6.53
2018-07-04T17:40:42.233Z,10.03
2018-07-04T17:43:22.311Z,5.23
2018-07-04T17:46:02.847Z,3.80
2018-07-04T17:59:22.385Z,6.23
2018-07-04T18:15:47.518Z,6.40
2018-07-04T18:18:28.531Z,4.63
2018-07-04T18:21:15.723Z,4.93
2018-07-04T18:23:59.836Z,4.07
2018-07-04T18:26:53.078Z,5.43
2018-07-04T18:29:35.330Z,4.03
2018-07-04T18:32:21.448Z,5.73
2018-07-04T18:35:03.276Z,5.77
2018-07-04T18:37:51.439Z,6.77
2018-07-04T18:43:20.483Z,3.53
2018-07-04T18:48:59.729Z,3.07
